sensor_id;sensor_type;location;lat;lon;timestamp;P1;durP1;ratioP1;P2;durP2;ratioP2
37973;SDS011;23796;51.458;7.000;2022-07-23T00:02:16;7.07;;;3.55;;
37973;SDS011;23796;51.458;7.000;2022-07-23T00:04:42;7.72;;;4.45;;
37973;SDS011;23796;51.458;7.000;2022-07-23T00:07:12;6.53;;;3.65;;
37973;SDS011;23796;51.458;7.000;2022-07-23T00:09:38;6.25;;;3.78;;
37973;SDS011;23796;51.458;7.000;2022-07-23T00:12:04;7.13;;;4.05;;
37973;SDS011;23796;51.458;7.000;2022-07-23T00:14:30;7.88;;;4.22;;
37973;SDS011;23796;51.458;7.000;2022-07-23T00:16:56;7.32;;;4.55;;
37973;SDS011;23796;51.458;7.000;2022-07-23T00:19:22;6.65;;;4.50;;
37973;SDS011;23796;51.458;7.000;2022-07-23T00:21:47;5.85;;;4.13;;
37973;SDS011;23796;51.458;7.000;2022-07-23T00:24:15;5.35;;;4.32;;
37973;SDS011;23796;51.458;7.000;2022-07-23T00:26:41;10.05;;;4.85;;
37973;SDS011;23796;51.458;7.000;2022-07-23T00:29:06;7.20;;;4.70;;
37973;SDS011;23796;51.458;7.000;2022-07-23T00:31:34;7.32;;;4.25;;
37973;SDS011;23796;51.458;7.000;2022-07-23T00:34:00;6.30;;;3.80;;
37973;SDS011;23796;51.458;7.000;2022-07-23T00:36:28;6.45;;;4.40;;
37973;SDS011;23796;51.458;7.000;2022-07-23T00:38:56;6.55;;;4.47;;
37973;SDS011;23796;51.458;7.000;2022-07-23T00:41:24;6.50;;;4.22;;
37973;SDS011;23796;51.458;7.000;2022-07-23T00:43:51;6.85;;;4.47;;
37973;SDS011;23796;51.458;7.000;2022-07-23T00:46:20;5.47;;;4.35;;
37973;SDS011;23796;51.458;7.000;2022-07-23T00:48:52;8.05;;;5.10;;
37973;SDS011;23796;51.458;7.000;2022-07-23T00:51:17;8.50;;;5.30;;
37973;SDS011;23796;51.458;7.000;2022-07-23T00:53:45;8.65;;;5.38;;
37973;SDS011;23796;51.458;7.000;2022-07-23T00:56:11;7.18;;;5.10;;
37973;SDS011;23796;51.458;7.000;2022-07-23T00:58:37;7.65;;;5.43;;
37973;SDS011;23796;51.458;7.000;2022-07-23T01:01:10;7.78;;;5.85;;
37973;SDS011;23796;51.458;7.000;2022-07-23T01:03:36;9.25;;;6.43;;
37973;SDS011;23796;51.458;7.000;2022-07-23T01:06:02;9.70;;;6.40;;
37973;SDS011;23796;51.458;7.000;2022-07-23T01:08:30;7.88;;;6.53;;
37973;SDS011;23796;51.458;7.000;2022-07-23T01:10:58;11.38;;;6.47;;
37973;SDS011;23796;51.458;7.000;2022-07-23T01:13:28;9.48;;;6.53;;
37973;SDS011;23796;51.458;7.000;2022-07-23T01:15:55;8.82;;;6.60;;
37973;SDS011;23796;51.458;7.000;2022-07-23T01:18:23;9.70;;;6.75;;
37973;SDS011;23796;51.458;7.000;2022-07-23T01:20:51;9.95;;;7.13;;
37973;SDS011;23796;51.458;7.000;2022-07-23T01:23:17;8.60;;;5.80;;
37973;SDS011;23796;51.458;7.000;2022-07-23T01:25:49;8.02;;;5.63;;
37973;SDS011;23796;51.458;7.000;2022-07-23T01:28:21;8.15;;;5.35;;
37973;SDS011;23796;51.458;7.000;2022-07-23T01:30:49;6.78;;;5.60;;
37973;SDS011;23796;51.458;7.000;2022-07-23T01:33:17;7.68;;;5.80;;
37973;SDS011;23796;51.458;7.000;2022-07-23T01:35:43;6.30;;;5.05;;
37973;SDS011;23796;51.458;7.000;2022-07-23T01:38:08;7.78;;;5.95;;
37973;SDS011;23796;51.458;7.000;2022-07-23T01:40:36;8.05;;;5.55;;
37973;SDS011;23796;51.458;7.000;2022-07-23T01:43:02;6.55;;;5.13;;
37973;SDS011;23796;51.458;7.000;2022-07-23T01:45:27;7.85;;;5.28;;
37973;SDS011;23796;51.458;7.000;2022-07-23T01:47:55;8.13;;;5.75;;
37973;SDS011;23796;51.458;7.000;2022-07-23T01:50:28;8.43;;;5.38;;
37973;SDS011;23796;51.458;7.000;2022-07-23T01:52:54;7.22;;;5.75;;
37973;SDS011;23796;51.458;7.000;2022-07-23T01:55:21;9.13;;;6.28;;
37973;SDS011;23796;51.458;7.000;2022-07-23T01:57:49;8.30;;;6.35;;
37973;SDS011;23796;51.458;7.000;2022-07-23T02:00:15;6.68;;;5.88;;
37973;SDS011;23796;51.458;7.000;2022-07-23T02:02:45;8.20;;;6.20;;
37973;SDS011;23796;51.458;7.000;2022-07-23T02:05:11;9.20;;;6.20;;
37973;SDS011;23796;51.458;7.000;2022-07-23T02:07:41;9.35;;;6.03;;
37973;SDS011;23796;51.458;7.000;2022-07-23T02:10:07;6.60;;;5.50;;
37973;SDS011;23796;51.458;7.000;2022-07-23T02:12:33;6.50;;;4.90;;
37973;SDS011;23796;51.458;7.000;2022-07-23T02:14:59;8.73;;;5.68;;
37973;SDS011;23796;51.458;7.000;2022-07-23T02:17:27;8.07;;;5.50;;
37973;SDS011;23796;51.458;7.000;2022-07-23T02:19:52;7.85;;;5.80;;
37973;SDS011;23796;51.458;7.000;2022-07-23T02:22:20;8.40;;;5.60;;
37973;SDS011;23796;51.458;7.000;2022-07-23T02:24:46;8.50;;;5.80;;
37973;SDS011;23796;51.458;7.000;2022-07-23T02:27:14;7.07;;;5.78;;
37973;SDS011;23796;51.458;7.000;2022-07-23T02:29:42;18.25;;;14.30;;
37973;SDS011;23796;51.458;7.000;2022-07-23T02:32:07;11.05;;;7.65;;
37973;SDS011;23796;51.458;7.000;2022-07-23T02:34:33;7.47;;;6.22;;
37973;SDS011;23796;51.458;7.000;2022-07-23T02:36:59;7.40;;;5.97;;
37973;SDS011;23796;51.458;7.000;2022-07-23T02:39:24;9.13;;;6.75;;
37973;SDS011;23796;51.458;7.000;2022-07-23T02:41:50;8.10;;;5.72;;
37973;SDS011;23796;51.458;7.000;2022-07-23T02:44:16;7.47;;;6.25;;
37973;SDS011;23796;51.458;7.000;2022-07-23T02:46:46;8.98;;;5.53;;
37973;SDS011;23796;51.458;7.000;2022-07-23T02:49:11;8.88;;;6.10;;
37973;SDS011;23796;51.458;7.000;2022-07-23T02:51:37;9.90;;;7.47;;
37973;SDS011;23796;51.458;7.000;2022-07-23T02:54:03;9.23;;;7.57;;
37973;SDS011;23796;51.458;7.000;2022-07-23T02:56:28;9.45;;;7.47;;
37973;SDS011;23796;51.458;7.000;2022-07-23T02:58:56;11.68;;;7.00;;
37973;SDS011;23796;51.458;7.000;2022-07-23T03:01:22;8.80;;;6.68;;
37973;SDS011;23796;51.458;7.000;2022-07-23T03:03:50;9.13;;;6.72;;
37973;SDS011;23796;51.458;7.000;2022-07-23T03:06:16;7.78;;;6.38;;
37973;SDS011;23796;51.458;7.000;2022-07-23T03:08:42;8.90;;;7.20;;
37973;SDS011;23796;51.458;7.000;2022-07-23T03:11:07;9.60;;;7.00;;
37973;SDS011;23796;51.458;7.000;2022-07-23T03:13:36;8.80;;;7.80;;
37973;SDS011;23796;51.458;7.000;2022-07-23T03:16:07;8.38;;;6.93;;
37973;SDS011;23796;51.458;7.000;2022-07-23T03:18:33;11.57;;;7.10;;
37973;SDS011;23796;51.458;7.000;2022-07-23T03:20:59;10.27;;;7.07;;
37973;SDS011;23796;51.458;7.000;2022-07-23T03:23:27;9.07;;;7.18;;
37973;SDS011;23796;51.458;7.000;2022-07-23T03:25:53;10.07;;;8.00;;
37973;SDS011;23796;51.458;7.000;2022-07-23T03:28:21;10.70;;;7.13;;
37973;SDS011;23796;51.458;7.000;2022-07-23T03:30:47;12.45;;;7.78;;
37973;SDS011;23796;51.458;7.000;2022-07-23T03:33:16;9.90;;;8.10;;
37973;SDS011;23796;51.458;7.000;2022-07-23T03:35:44;9.13;;;6.93;;
37973;SDS011;23796;51.458;7.000;2022-07-23T03:38:11;10.48;;;7.80;;
37973;SDS011;23796;51.458;7.000;2022-07-23T03:40:37;9.50;;;7.50;;
37973;SDS011;23796;51.458;7.000;2022-07-23T03:43:03;9.20;;;6.95;;
37973;SDS011;23796;51.458;7.000;2022-07-23T03:45:31;9.45;;;8.13;;
37973;SDS011;23796;51.458;7.000;2022-07-23T03:47:56;9.30;;;7.63;;
37973;SDS011;23796;51.458;7.000;2022-07-23T03:50:23;9.30;;;7.13;;
37973;SDS011;23796;51.458;7.000;2022-07-23T03:52:51;12.10;;;7.70;;
37973;SDS011;23796;51.458;7.000;2022-07-23T03:55:17;9.73;;;8.30;;
37973;SDS011;23796;51.458;7.000;2022-07-23T03:57:45;9.45;;;7.85;;
37973;SDS011;23796;51.458;7.000;2022-07-23T04:00:11;13.23;;;8.30;;
37973;SDS011;23796;51.458;7.000;2022-07-23T04:02:38;8.85;;;7.60;;
37973;SDS011;23796;51.458;7.000;2022-07-23T04:05:04;10.98;;;8.35;;
37973;SDS011;23796;51.458;7.000;2022-07-23T04:07:30;10.45;;;7.97;;
37973;SDS011;23796;51.458;7.000;2022-07-23T04:09:56;10.68;;;8.90;;
37973;SDS011;23796;51.458;7.000;2022-07-23T04:12:24;8.20;;;7.28;;
37973;SDS011;23796;51.458;7.000;2022-07-23T04:14:50;9.85;;;7.68;;
37973;SDS011;23796;51.458;7.000;2022-07-23T04:17:18;8.68;;;7.75;;
37973;SDS011;23796;51.458;7.000;2022-07-23T04:19:44;10.10;;;8.00;;
37973;SDS011;23796;51.458;7.000;2022-07-23T04:22:12;9.68;;;7.32;;
37973;SDS011;23796;51.458;7.000;2022-07-23T04:24:40;9.32;;;7.95;;
37973;SDS011;23796;51.458;7.000;2022-07-23T04:27:08;11.13;;;7.95;;
37973;SDS011;23796;51.458;7.000;2022-07-23T04:29:33;8.68;;;7.78;;
37973;SDS011;23796;51.458;7.000;2022-07-23T04:32:02;12.23;;;8.00;;
37973;SDS011;23796;51.458;7.000;2022-07-23T04:34:30;10.07;;;8.55;;
37973;SDS011;23796;51.458;7.000;2022-07-23T04:36:55;11.95;;;9.40;;
37973;SDS011;23796;51.458;7.000;2022-07-23T04:39:21;12.65;;;8.93;;
37973;SDS011;23796;51.458;7.000;2022-07-23T04:41:47;10.32;;;8.38;;
37973;SDS011;23796;51.458;7.000;2022-07-23T04:44:13;10.93;;;9.20;;
37973;SDS011;23796;51.458;7.000;2022-07-23T04:46:38;11.48;;;8.73;;
37973;SDS011;23796;51.458;7.000;2022-07-23T04:49:04;10.52;;;8.30;;
37973;SDS011;23796;51.458;7.000;2022-07-23T04:51:30;9.95;;;7.75;;
37973;SDS011;23796;51.458;7.000;2022-07-23T04:53:58;10.60;;;8.20;;
37973;SDS011;23796;51.458;7.000;2022-07-23T04:56:23;9.68;;;7.53;;
37973;SDS011;23796;51.458;7.000;2022-07-23T04:58:49;9.85;;;8.55;;
37973;SDS011;23796;51.458;7.000;2022-07-23T05:01:17;9.95;;;8.73;;
37973;SDS011;23796;51.458;7.000;2022-07-23T05:03:43;9.68;;;8.18;;
37973;SDS011;23796;51.458;7.000;2022-07-23T05:06:09;11.52;;;8.52;;
37973;SDS011;23796;51.458;7.000;2022-07-23T05:08:34;13.10;;;9.20;;
37973;SDS011;23796;51.458;7.000;2022-07-23T05:11:00;9.90;;;8.52;;
37973;SDS011;23796;51.458;7.000;2022-07-23T05:13:25;10.63;;;8.95;;
37973;SDS011;23796;51.458;7.000;2022-07-23T05:15:51;10.10;;;8.73;;
37973;SDS011;23796;51.458;7.000;2022-07-23T05:18:19;12.75;;;9.07;;
37973;SDS011;23796;51.458;7.000;2022-07-23T05:20:47;10.05;;;8.70;;
37973;SDS011;23796;51.458;7.000;2022-07-23T05:23:12;11.18;;;9.65;;
37973;SDS011;23796;51.458;7.000;2022-07-23T05:25:40;10.98;;;9.70;;
37973;SDS011;23796;51.458;7.000;2022-07-23T05:28:06;10.98;;;9.88;;
37973;SDS011;23796;51.458;7.000;2022-07-23T05:30:31;11.38;;;10.27;;
37973;SDS011;23796;51.458;7.000;2022-07-23T05:32:57;12.00;;;10.32;;
37973;SDS011;23796;51.458;7.000;2022-07-23T05:35:23;11.32;;;10.10;;
37973;SDS011;23796;51.458;7.000;2022-07-23T05:37:48;11.38;;;9.63;;
37973;SDS011;23796;51.458;7.000;2022-07-23T05:40:14;12.00;;;10.23;;
37973;SDS011;23796;51.458;7.000;2022-07-23T05:42:40;12.10;;;10.32;;
37973;SDS011;23796;51.458;7.000;2022-07-23T05:45:09;12.30;;;10.60;;
37973;SDS011;23796;51.458;7.000;2022-07-23T05:47:39;12.75;;;10.95;;
37973;SDS011;23796;51.458;7.000;2022-07-23T05:50:10;11.48;;;10.27;;
37973;SDS011;23796;51.458;7.000;2022-07-23T05:52:36;11.68;;;10.48;;
37973;SDS011;23796;51.458;7.000;2022-07-23T05:55:02;12.48;;;11.20;;
37973;SDS011;23796;51.458;7.000;2022-07-23T05:57:32;12.23;;;10.90;;
37973;SDS011;23796;51.458;7.000;2022-07-23T05:59:58;12.88;;;11.30;;
37973;SDS011;23796;51.458;7.000;2022-07-23T06:02:26;14.13;;;12.63;;
37973;SDS011;23796;51.458;7.000;2022-07-23T06:04:51;14.90;;;11.68;;
37973;SDS011;23796;51.458;7.000;2022-07-23T06:07:17;13.52;;;11.85;;
37973;SDS011;23796;51.458;7.000;2022-07-23T06:09:43;12.93;;;11.63;;
37973;SDS011;23796;51.458;7.000;2022-07-23T06:12:08;13.82;;;12.43;;
37973;SDS011;23796;51.458;7.000;2022-07-23T06:14:36;13.82;;;11.32;;
37973;SDS011;23796;51.458;7.000;2022-07-23T06:17:02;13.77;;;11.88;;
37973;SDS011;23796;51.458;7.000;2022-07-23T06:19:27;15.52;;;11.73;;
37973;SDS011;23796;51.458;7.000;2022-07-23T06:21:53;12.80;;;11.50;;
37973;SDS011;23796;51.458;7.000;2022-07-23T06:24:19;13.00;;;11.02;;
37973;SDS011;23796;51.458;7.000;2022-07-23T06:26:47;14.40;;;12.90;;
37973;SDS011;23796;51.458;7.000;2022-07-23T06:29:12;13.00;;;11.77;;
37973;SDS011;23796;51.458;7.000;2022-07-23T06:31:40;14.25;;;12.70;;
37973;SDS011;23796;51.458;7.000;2022-07-23T06:34:06;15.10;;;11.55;;
37973;SDS011;23796;51.458;7.000;2022-07-23T06:36:34;14.70;;;11.73;;
37973;SDS011;23796;51.458;7.000;2022-07-23T06:39:04;14.15;;;11.13;;
37973;SDS011;23796;51.458;7.000;2022-07-23T06:41:32;14.32;;;12.20;;
37973;SDS011;23796;51.458;7.000;2022-07-23T06:43:58;13.85;;;12.10;;
37973;SDS011;23796;51.458;7.000;2022-07-23T06:46:23;12.93;;;11.43;;
37973;SDS011;23796;51.458;7.000;2022-07-23T06:48:51;14.25;;;10.85;;
37973;SDS011;23796;51.458;7.000;2022-07-23T06:51:19;14.48;;;12.27;;
37973;SDS011;23796;51.458;7.000;2022-07-23T06:53:45;14.70;;;11.75;;
37973;SDS011;23796;51.458;7.000;2022-07-23T06:56:10;13.45;;;11.88;;
37973;SDS011;23796;51.458;7.000;2022-07-23T06:58:36;15.05;;;11.93;;
37973;SDS011;23796;51.458;7.000;2022-07-23T07:01:04;15.75;;;13.13;;
37973;SDS011;23796;51.458;7.000;2022-07-23T07:03:29;13.02;;;11.63;;
37973;SDS011;23796;51.458;7.000;2022-07-23T07:05:55;16.83;;;13.60;;
37973;SDS011;23796;51.458;7.000;2022-07-23T07:08:22;15.15;;;12.23;;
37973;SDS011;23796;51.458;7.000;2022-07-23T07:10:51;14.40;;;12.90;;
37973;SDS011;23796;51.458;7.000;2022-07-23T07:13:16;14.50;;;12.50;;
37973;SDS011;23796;51.458;7.000;2022-07-23T07:15:42;15.40;;;13.02;;
37973;SDS011;23796;51.458;7.000;2022-07-23T07:18:08;18.05;;;14.90;;
37973;SDS011;23796;51.458;7.000;2022-07-23T07:20:33;17.20;;;13.82;;
37973;SDS011;23796;51.458;7.000;2022-07-23T07:22:59;14.00;;;12.50;;
37973;SDS011;23796;51.458;7.000;2022-07-23T07:25:27;16.45;;;14.70;;
37973;SDS011;23796;51.458;7.000;2022-07-23T07:27:55;14.82;;;13.05;;
37973;SDS011;23796;51.458;7.000;2022-07-23T07:30:20;16.88;;;13.43;;
37973;SDS011;23796;51.458;7.000;2022-07-23T07:32:46;15.80;;;13.52;;
37973;SDS011;23796;51.458;7.000;2022-07-23T07:35:12;16.75;;;13.80;;
37973;SDS011;23796;51.458;7.000;2022-07-23T07:37:38;14.00;;;12.50;;
37973;SDS011;23796;51.458;7.000;2022-07-23T07:40:04;17.42;;;11.38;;
37973;SDS011;23796;51.458;7.000;2022-07-23T07:42:29;14.88;;;13.38;;
37973;SDS011;23796;51.458;7.000;2022-07-23T07:44:57;12.85;;;11.57;;
37973;SDS011;23796;51.458;7.000;2022-07-23T07:47:23;12.50;;;11.20;;
37973;SDS011;23796;51.458;7.000;2022-07-23T07:49:51;12.02;;;10.85;;
37973;SDS011;23796;51.458;7.000;2022-07-23T07:52:16;12.40;;;10.40;;
37973;SDS011;23796;51.458;7.000;2022-07-23T07:54:42;12.88;;;10.43;;
37973;SDS011;23796;51.458;7.000;2022-07-23T07:57:08;10.20;;;8.75;;
37973;SDS011;23796;51.458;7.000;2022-07-23T07:59:34;11.80;;;8.77;;
37973;SDS011;23796;51.458;7.000;2022-07-23T08:02:02;9.90;;;8.52;;
37973;SDS011;23796;51.458;7.000;2022-07-23T08:04:32;10.50;;;7.53;;
37973;SDS011;23796;51.458;7.000;2022-07-23T08:06:57;7.68;;;6.88;;
37973;SDS011;23796;51.458;7.000;2022-07-23T08:09:23;7.22;;;5.75;;
37973;SDS011;23796;51.458;7.000;2022-07-23T08:11:51;8.32;;;5.65;;
37973;SDS011;23796;51.458;7.000;2022-07-23T08:14:19;7.78;;;5.15;;
37973;SDS011;23796;51.458;7.000;2022-07-23T08:16:44;7.18;;;5.00;;
37973;SDS011;23796;51.458;7.000;2022-07-23T08:19:12;7.70;;;5.32;;
37973;SDS011;23796;51.458;7.000;2022-07-23T08:21:38;6.93;;;4.70;;
37973;SDS011;23796;51.458;7.000;2022-07-23T08:24:03;6.75;;;4.28;;
37973;SDS011;23796;51.458;7.000;2022-07-23T08:26:29;7.35;;;4.50;;
37973;SDS011;23796;51.458;7.000;2022-07-23T08:28:55;6.85;;;4.07;;
37973;SDS011;23796;51.458;7.000;2022-07-23T08:31:22;7.97;;;5.05;;
37973;SDS011;23796;51.458;7.000;2022-07-23T08:33:48;6.50;;;4.32;;
37973;SDS011;23796;51.458;7.000;2022-07-23T08:36:19;7.07;;;3.92;;
37973;SDS011;23796;51.458;7.000;2022-07-23T08:38:47;7.57;;;3.50;;
37973;SDS011;23796;51.458;7.000;2022-07-23T08:41:15;6.32;;;4.15;;
37973;SDS011;23796;51.458;7.000;2022-07-23T08:43:41;6.55;;;3.50;;
37973;SDS011;23796;51.458;7.000;2022-07-23T08:46:08;6.75;;;3.22;;
37973;SDS011;23796;51.458;7.000;2022-07-23T08:48:36;7.38;;;3.30;;
37973;SDS011;23796;51.458;7.000;2022-07-23T08:51:02;7.22;;;3.30;;
37973;SDS011;23796;51.458;7.000;2022-07-23T08:53:30;7.50;;;3.30;;
37973;SDS011;23796;51.458;7.000;2022-07-23T08:56:00;7.30;;;2.72;;
37973;SDS011;23796;51.458;7.000;2022-07-23T08:58:30;5.57;;;2.90;;
37973;SDS011;23796;51.458;7.000;2022-07-23T09:00:56;6.45;;;3.20;;
37973;SDS011;23796;51.458;7.000;2022-07-23T09:03:23;4.65;;;2.50;;
37973;SDS011;23796;51.458;7.000;2022-07-23T09:06:00;5.75;;;3.10;;
37973;SDS011;23796;51.458;7.000;2022-07-23T09:11:06;5.25;;;2.55;;
37973;SDS011;23796;51.458;7.000;2022-07-23T09:13:41;5.15;;;2.45;;
37973;SDS011;23796;51.458;7.000;2022-07-23T09:16:18;5.18;;;2.95;;
37973;SDS011;23796;51.458;7.000;2022-07-23T09:21:31;5.13;;;2.58;;
37973;SDS011;23796;51.458;7.000;2022-07-23T09:24:01;6.90;;;2.53;;
37973;SDS011;23796;51.458;7.000;2022-07-23T09:26:47;5.03;;;2.30;;
37973;SDS011;23796;51.458;7.000;2022-07-23T09:31:44;5.78;;;2.38;;
37973;SDS011;23796;51.458;7.000;2022-07-23T09:34:21;4.20;;;1.80;;
37973;SDS011;23796;51.458;7.000;2022-07-23T09:36:49;5.32;;;2.00;;
37973;SDS011;23796;51.458;7.000;2022-07-23T09:39:37;4.63;;;2.03;;
37973;SDS011;23796;51.458;7.000;2022-07-23T09:44:44;5.57;;;2.80;;
37973;SDS011;23796;51.458;7.000;2022-07-23T09:47:13;5.93;;;2.67;;
37973;SDS011;23796;51.458;7.000;2022-07-23T09:49:39;5.28;;;2.63;;
37973;SDS011;23796;51.458;7.000;2022-07-23T09:52:05;5.22;;;2.50;;
37973;SDS011;23796;51.458;7.000;2022-07-23T09:54:32;6.10;;;2.00;;
37973;SDS011;23796;51.458;7.000;2022-07-23T09:59:34;3.88;;;1.85;;
37973;SDS011;23796;51.458;7.000;2022-07-23T10:02:02;4.20;;;2.20;;
37973;SDS011;23796;51.458;7.000;2022-07-23T10:04:30;4.47;;;2.25;;
37973;SDS011;23796;51.458;7.000;2022-07-23T10:06:59;4.20;;;2.30;;
37973;SDS011;23796;51.458;7.000;2022-07-23T10:09:33;4.22;;;1.95;;
37973;SDS011;23796;51.458;7.000;2022-07-23T10:12:05;3.75;;;1.80;;
37973;SDS011;23796;51.458;7.000;2022-07-23T10:14:36;5.07;;;2.00;;
37973;SDS011;23796;51.458;7.000;2022-07-23T10:17:08;5.13;;;2.10;;
37973;SDS011;23796;51.458;7.000;2022-07-23T10:19:34;4.30;;;2.10;;
37973;SDS011;23796;51.458;7.000;2022-07-23T10:22:01;3.92;;;2.30;;
37973;SDS011;23796;51.458;7.000;2022-07-23T10:30:30;5.38;;;2.10;;
37973;SDS011;23796;51.458;7.000;2022-07-23T10:38:48;4.28;;;2.10;;
37973;SDS011;23796;51.458;7.000;2022-07-23T10:41:40;4.32;;;1.48;;
37973;SDS011;23796;51.458;7.000;2022-07-23T10:44:14;4.25;;;1.73;;
37973;SDS011;23796;51.458;7.000;2022-07-23T10:46:56;4.07;;;1.85;;
37973;SDS011;23796;51.458;7.000;2022-07-23T10:49:34;3.70;;;1.63;;
37973;SDS011;23796;51.458;7.000;2022-07-23T10:57:27;3.23;;;1.67;;
37973;SDS011;23796;51.458;7.000;2022-07-23T11:02:48;3.28;;;1.42;;
37973;SDS011;23796;51.458;7.000;2022-07-23T11:05:20;3.15;;;1.50;;
37973;SDS011;23796;51.458;7.000;2022-07-23T11:10:43;2.65;;;1.17;;
37973;SDS011;23796;51.458;7.000;2022-07-23T11:34:46;3.28;;;1.15;;
37973;SDS011;23796;51.458;7.000;2022-07-23T11:37:29;3.88;;;1.30;;
37973;SDS011;23796;51.458;7.000;2022-07-23T11:40:08;3.00;;;1.23;;
37973;SDS011;23796;51.458;7.000;2022-07-23T11:42:38;3.35;;;1.20;;
37973;SDS011;23796;51.458;7.000;2022-07-23T11:45:07;2.70;;;1.25;;
37973;SDS011;23796;51.458;7.000;2022-07-23T11:47:37;3.90;;;1.38;;
37973;SDS011;23796;51.458;7.000;2022-07-23T11:50:05;3.08;;;1.13;;
37973;SDS011;23796;51.458;7.000;2022-07-23T11:52:34;2.50;;;1.30;;
37973;SDS011;23796;51.458;7.000;2022-07-23T11:57:36;2.50;;;1.30;;
37973;SDS011;23796;51.458;7.000;2022-07-23T12:00:10;4.78;;;1.33;;
37973;SDS011;23796;51.458;7.000;2022-07-23T12:02:39;3.38;;;1.27;;
37973;SDS011;23796;51.458;7.000;2022-07-23T12:05:06;2.92;;;1.00;;
37973;SDS011;23796;51.458;7.000;2022-07-23T12:07:40;3.65;;;1.00;;
37973;SDS011;23796;51.458;7.000;2022-07-23T12:12:46;3.40;;;1.30;;
37973;SDS011;23796;51.458;7.000;2022-07-23T12:15:15;3.55;;;1.40;;
37973;SDS011;23796;51.458;7.000;2022-07-23T12:17:48;3.80;;;1.40;;
37973;SDS011;23796;51.458;7.000;2022-07-23T12:20:16;5.72;;;1.75;;
37973;SDS011;23796;51.458;7.000;2022-07-23T12:22:48;2.95;;;1.38;;
37973;SDS011;23796;51.458;7.000;2022-07-23T12:25:16;2.85;;;1.40;;
37973;SDS011;23796;51.458;7.000;2022-07-23T12:27:46;4.07;;;1.60;;
37973;SDS011;23796;51.458;7.000;2022-07-23T12:35:33;2.65;;;1.30;;
37973;SDS011;23796;51.458;7.000;2022-07-23T12:38:07;2.92;;;1.23;;
37973;SDS011;23796;51.458;7.000;2022-07-23T12:40:41;2.67;;;1.27;;
37973;SDS011;23796;51.458;7.000;2022-07-23T12:43:20;2.70;;;1.02;;
37973;SDS011;23796;51.458;7.000;2022-07-23T12:45:50;2.08;;;1.00;;
37973;SDS011;23796;51.458;7.000;2022-07-23T12:53:25;3.38;;;1.20;;
37973;SDS011;23796;51.458;7.000;2022-07-23T12:58:24;2.50;;;1.05;;
37973;SDS011;23796;51.458;7.000;2022-07-23T13:06:06;4.03;;;1.60;;
37973;SDS011;23796;51.458;7.000;2022-07-23T13:08:34;3.17;;;1.33;;
37973;SDS011;23796;51.458;7.000;2022-07-23T13:11:02;2.45;;;1.00;;
37973;SDS011;23796;51.458;7.000;2022-07-23T13:13:29;2.33;;;1.13;;
37973;SDS011;23796;51.458;7.000;2022-07-23T13:15:59;2.58;;;1.30;;
37973;SDS011;23796;51.458;7.000;2022-07-23T13:18:25;2.58;;;1.20;;
37973;SDS011;23796;51.458;7.000;2022-07-23T13:20:54;2.30;;;1.20;;
37973;SDS011;23796;51.458;7.000;2022-07-23T13:23:20;2.30;;;1.20;;
37973;SDS011;23796;51.458;7.000;2022-07-23T13:25:46;2.60;;;1.10;;
37973;SDS011;23796;51.458;7.000;2022-07-23T13:28:13;2.70;;;1.60;;
37973;SDS011;23796;51.458;7.000;2022-07-23T13:30:40;2.40;;;1.13;;
37973;SDS011;23796;51.458;7.000;2022-07-23T13:33:06;2.58;;;1.17;;
37973;SDS011;23796;51.458;7.000;2022-07-23T13:35:33;2.72;;;1.35;;
37973;SDS011;23796;51.458;7.000;2022-07-23T13:38:05;5.32;;;1.80;;
37973;SDS011;23796;51.458;7.000;2022-07-23T13:40:33;3.28;;;1.30;;
37973;SDS011;23796;51.458;7.000;2022-07-23T13:43:04;3.20;;;1.30;;
37973;SDS011;23796;51.458;7.000;2022-07-23T13:45:31;3.10;;;1.38;;
37973;SDS011;23796;51.458;7.000;2022-07-23T13:48:00;3.30;;;1.40;;
37973;SDS011;23796;51.458;7.000;2022-07-23T13:50:26;4.03;;;1.67;;
37973;SDS011;23796;51.458;7.000;2022-07-23T13:52:52;7.55;;;1.70;;
37973;SDS011;23796;51.458;7.000;2022-07-23T13:55:20;4.40;;;1.60;;
37973;SDS011;23796;51.458;7.000;2022-07-23T13:57:46;2.45;;;1.20;;
37973;SDS011;23796;51.458;7.000;2022-07-23T14:00:11;3.25;;;1.50;;
37973;SDS011;23796;51.458;7.000;2022-07-23T14:02:38;3.75;;;1.52;;
37973;SDS011;23796;51.458;7.000;2022-07-23T14:05:06;3.05;;;1.40;;
37973;SDS011;23796;51.458;7.000;2022-07-23T14:07:34;3.00;;;1.45;;
37973;SDS011;23796;51.458;7.000;2022-07-23T14:10:00;2.80;;;1.27;;
37973;SDS011;23796;51.458;7.000;2022-07-23T14:12:29;2.97;;;1.23;;
37973;SDS011;23796;51.458;7.000;2022-07-23T14:14:57;3.95;;;1.30;;
37973;SDS011;23796;51.458;7.000;2022-07-23T14:17:22;3.15;;;1.25;;
37973;SDS011;23796;51.458;7.000;2022-07-23T14:19:50;3.70;;;1.80;;
37973;SDS011;23796;51.458;7.000;2022-07-23T14:22:18;4.68;;;1.85;;
37973;SDS011;23796;51.458;7.000;2022-07-23T14:24:47;4.45;;;1.95;;
37973;SDS011;23796;51.458;7.000;2022-07-23T14:27:12;4.47;;;1.77;;
37973;SDS011;23796;51.458;7.000;2022-07-23T14:29:41;4.50;;;1.67;;
37973;SDS011;23796;51.458;7.000;2022-07-23T14:32:09;2.70;;;1.55;;
37973;SDS011;23796;51.458;7.000;2022-07-23T14:34:35;3.45;;;1.48;;
37973;SDS011;23796;51.458;7.000;2022-07-23T14:37:01;3.58;;;1.60;;
37973;SDS011;23796;51.458;7.000;2022-07-23T14:39:31;3.55;;;1.33;;
37973;SDS011;23796;51.458;7.000;2022-07-23T14:41:59;3.17;;;1.40;;
37973;SDS011;23796;51.458;7.000;2022-07-23T14:44:26;3.00;;;1.50;;
37973;SDS011;23796;51.458;7.000;2022-07-23T14:46:52;4.15;;;1.50;;
37973;SDS011;23796;51.458;7.000;2022-07-23T14:49:18;2.63;;;1.25;;
37973;SDS011;23796;51.458;7.000;2022-07-23T14:51:46;3.15;;;1.75;;
37973;SDS011;23796;51.458;7.000;2022-07-23T14:54:12;2.90;;;1.48;;
37973;SDS011;23796;51.458;7.000;2022-07-23T14:56:39;3.05;;;1.40;;
37973;SDS011;23796;51.458;7.000;2022-07-23T14:59:05;4.15;;;1.70;;
37973;SDS011;23796;51.458;7.000;2022-07-23T15:01:34;4.05;;;1.52;;
37973;SDS011;23796;51.458;7.000;2022-07-23T15:04:00;2.55;;;1.23;;
37973;SDS011;23796;51.458;7.000;2022-07-23T15:06:28;3.35;;;1.35;;
37973;SDS011;23796;51.458;7.000;2022-07-23T15:08:53;3.03;;;1.30;;
37973;SDS011;23796;51.458;7.000;2022-07-23T15:11:19;2.78;;;1.38;;
37973;SDS011;23796;51.458;7.000;2022-07-23T15:13:45;4.10;;;1.40;;
37973;SDS011;23796;51.458;7.000;2022-07-23T15:16:11;3.53;;;1.67;;
37973;SDS011;23796;51.458;7.000;2022-07-23T15:18:37;3.22;;;1.55;;
37973;SDS011;23796;51.458;7.000;2022-07-23T15:21:03;3.33;;;1.45;;
37973;SDS011;23796;51.458;7.000;2022-07-23T15:23:29;5.80;;;1.65;;
37973;SDS011;23796;51.458;7.000;2022-07-23T15:25:55;2.60;;;1.60;;
37973;SDS011;23796;51.458;7.000;2022-07-23T15:28:23;5.65;;;1.90;;
37973;SDS011;23796;51.458;7.000;2022-07-23T15:30:51;3.22;;;1.48;;
37973;SDS011;23796;51.458;7.000;2022-07-23T15:33:18;3.08;;;1.50;;
37973;SDS011;23796;51.458;7.000;2022-07-23T15:35:44;4.00;;;1.50;;
37973;SDS011;23796;51.458;7.000;2022-07-23T15:38:10;3.55;;;1.50;;
37973;SDS011;23796;51.458;7.000;2022-07-23T15:40:36;3.38;;;1.60;;
37973;SDS011;23796;51.458;7.000;2022-07-23T15:43:02;5.00;;;1.60;;
37973;SDS011;23796;51.458;7.000;2022-07-23T15:45:30;3.33;;;1.48;;
37973;SDS011;23796;51.458;7.000;2022-07-23T15:47:56;3.78;;;1.38;;
37973;SDS011;23796;51.458;7.000;2022-07-23T15:50:27;4.00;;;1.65;;
37973;SDS011;23796;51.458;7.000;2022-07-23T15:52:52;3.72;;;1.45;;
37973;SDS011;23796;51.458;7.000;2022-07-23T15:55:18;3.72;;;1.95;;
37973;SDS011;23796;51.458;7.000;2022-07-23T15:57:46;3.38;;;1.55;;
37973;SDS011;23796;51.458;7.000;2022-07-23T16:00:16;4.63;;;1.75;;
37973;SDS011;23796;51.458;7.000;2022-07-23T16:02:42;4.50;;;1.55;;
37973;SDS011;23796;51.458;7.000;2022-07-23T16:05:10;3.28;;;1.50;;